sensor_id;sensor_type;location;lat;lon;timestamp;P1;durP1;ratioP1;P2;durP2;ratioP2
16699;SDS011;8466;52.286;21.124;2023-01-13T00:01:39;30.37;;;28.17;;
16699;SDS011;8466;52.286;21.124;2023-01-13T00:04:08;29.67;;;27.30;;
16699;SDS011;8466;52.286;21.124;2023-01-13T00:06:40;29.87;;;27.30;;
16699;SDS011;8466;52.286;21.124;2023-01-13T00:09:11;35.03;;;32.27;;
16699;SDS011;8466;52.286;21.124;2023-01-13T00:11:40;32.27;;;29.57;;
16699;SDS011;8466;52.286;21.124;2023-01-13T00:14:09;29.27;;;26.70;;
16699;SDS011;8466;52.286;21.124;2023-01-13T00:16:43;28.30;;;25.93;;
16699;SDS011;8466;52.286;21.124;2023-01-13T00:19:12;34.33;;;31.10;;
16699;SDS011;8466;52.286;21.124;2023-01-13T00:21:47;30.37;;;27.97;;
16699;SDS011;8466;52.286;21.124;2023-01-13T00:24:21;35.63;;;33.03;;
16699;SDS011;8466;52.286;21.124;2023-01-13T00:26:56;37.07;;;34.40;;
16699;SDS011;8466;52.286;21.124;2023-01-13T00:29:39;40.73;;;37.97;;
16699;SDS011;8466;52.286;21.124;2023-01-13T00:32:11;39.00;;;36.23;;
16699;SDS011;8466;52.286;21.124;2023-01-13T00:34:41;32.53;;;30.13;;
16699;SDS011;8466;52.286;21.124;2023-01-13T00:37:18;30.83;;;28.40;;
16699;SDS011;8466;52.286;21.124;2023-01-13T00:39:54;37.40;;;34.50;;
16699;SDS011;8466;52.286;21.124;2023-01-13T00:42:24;30.40;;;28.00;;
16699;SDS011;8466;52.286;21.124;2023-01-13T00:45:22;42.43;;;39.40;;
16699;SDS011;8466;52.286;21.124;2023-01-13T00:47:50;35.70;;;32.93;;
16699;SDS011;8466;52.286;21.124;2023-01-13T00:50:21;33.30;;;30.90;;
16699;SDS011;8466;52.286;21.124;2023-01-13T00:52:50;31.90;;;29.40;;
16699;SDS011;8466;52.286;21.124;2023-01-13T00:55:22;31.03;;;28.40;;
16699;SDS011;8466;52.286;21.124;2023-01-13T00:57:55;37.57;;;34.83;;
16699;SDS011;8466;52.286;21.124;2023-01-13T01:00:29;35.20;;;32.20;;
16699;SDS011;8466;52.286;21.124;2023-01-13T01:02:57;33.33;;;30.63;;
16699;SDS011;8466;52.286;21.124;2023-01-13T01:05:26;30.73;;;28.10;;
16699;SDS011;8466;52.286;21.124;2023-01-13T01:07:55;29.67;;;27.20;;
16699;SDS011;8466;52.286;21.124;2023-01-13T01:10:25;35.77;;;32.80;;
16699;SDS011;8466;52.286;21.124;2023-01-13T01:12:54;36.57;;;33.53;;
16699;SDS011;8466;52.286;21.124;2023-01-13T01:15:26;37.10;;;34.33;;
16699;SDS011;8466;52.286;21.124;2023-01-13T01:18:01;34.20;;;31.33;;
16699;SDS011;8466;52.286;21.124;2023-01-13T01:20:32;36.07;;;33.23;;
16699;SDS011;8466;52.286;21.124;2023-01-13T01:23:02;31.30;;;28.80;;
16699;SDS011;8466;52.286;21.124;2023-01-13T01:25:33;34.47;;;31.67;;
16699;SDS011;8466;52.286;21.124;2023-01-13T01:28:01;29.87;;;27.30;;
16699;SDS011;8466;52.286;21.124;2023-01-13T01:30:30;24.57;;;22.33;;
16699;SDS011;8466;52.286;21.124;2023-01-13T01:32:59;30.70;;;28.00;;
16699;SDS011;8466;52.286;21.124;2023-01-13T01:35:37;27.77;;;25.63;;
16699;SDS011;8466;52.286;21.124;2023-01-13T01:38:07;25.37;;;23.20;;
16699;SDS011;8466;52.286;21.124;2023-01-13T01:40:37;27.40;;;24.90;;
16699;SDS011;8466;52.286;21.124;2023-01-13T01:43:09;27.17;;;24.90;;
16699;SDS011;8466;52.286;21.124;2023-01-13T01:45:58;22.10;;;20.10;;
16699;SDS011;8466;52.286;21.124;2023-01-13T01:48:31;26.63;;;24.47;;
16699;SDS011;8466;52.286;21.124;2023-01-13T01:51:05;24.47;;;22.37;;
16699;SDS011;8466;52.286;21.124;2023-01-13T01:53:37;25.27;;;23.17;;
16699;SDS011;8466;52.286;21.124;2023-01-13T01:56:08;28.80;;;25.97;;
16699;SDS011;8466;52.286;21.124;2023-01-13T01:58:38;25.67;;;23.53;;
16699;SDS011;8466;52.286;21.124;2023-01-13T02:01:14;24.67;;;22.33;;
16699;SDS011;8466;52.286;21.124;2023-01-13T02:03:45;24.10;;;22.17;;
16699;SDS011;8466;52.286;21.124;2023-01-13T02:06:23;20.07;;;18.20;;
16699;SDS011;8466;52.286;21.124;2023-01-13T02:08:57;21.17;;;19.27;;
16699;SDS011;8466;52.286;21.124;2023-01-13T02:11:33;22.37;;;20.37;;
16699;SDS011;8466;52.286;21.124;2023-01-13T02:14:24;22.27;;;19.97;;
16699;SDS011;8466;52.286;21.124;2023-01-13T02:17:01;19.70;;;17.87;;
16699;SDS011;8466;52.286;21.124;2023-01-13T02:22:45;22.47;;;20.60;;
16699;SDS011;8466;52.286;21.124;2023-01-13T02:25:43;23.33;;;21.33;;
16699;SDS011;8466;52.286;21.124;2023-01-13T02:28:39;20.20;;;18.40;;
16699;SDS011;8466;52.286;21.124;2023-01-13T02:31:39;21.77;;;20.07;;
16699;SDS011;8466;52.286;21.124;2023-01-13T02:34:14;20.40;;;18.67;;
16699;SDS011;8466;52.286;21.124;2023-01-13T02:36:51;22.50;;;20.60;;
16699;SDS011;8466;52.286;21.124;2023-01-13T02:39:26;21.83;;;19.93;;
16699;SDS011;8466;52.286;21.124;2023-01-13T02:42:02;24.17;;;22.27;;
16699;SDS011;8466;52.286;21.124;2023-01-13T02:44:52;24.13;;;22.17;;
16699;SDS011;8466;52.286;21.124;2023-01-13T02:47:27;27.27;;;24.93;;
16699;SDS011;8466;52.286;21.124;2023-01-13T02:50:00;26.77;;;24.47;;
16699;SDS011;8466;52.286;21.124;2023-01-13T02:52:34;17.50;;;15.98;;
16699;SDS011;8466;52.286;21.124;2023-01-13T02:55:13;22.77;;;20.83;;
16699;SDS011;8466;52.286;21.124;2023-01-13T02:57:58;30.97;;;28.47;;
16699;SDS011;8466;52.286;21.124;2023-01-13T03:00:30;29.43;;;26.93;;
16699;SDS011;8466;52.286;21.124;2023-01-13T03:03:00;27.37;;;25.10;;
16699;SDS011;8466;52.286;21.124;2023-01-13T03:05:29;26.10;;;24.00;;
16699;SDS011;8466;52.286;21.124;2023-01-13T03:08:03;25.97;;;23.80;;
16699;SDS011;8466;52.286;21.124;2023-01-13T03:10:53;25.43;;;23.50;;
16699;SDS011;8466;52.286;21.124;2023-01-13T03:16:27;23.80;;;21.60;;
16699;SDS011;8466;52.286;21.124;2023-01-13T03:19:07;24.10;;;21.87;;
16699;SDS011;8466;52.286;21.124;2023-01-13T03:21:53;29.97;;;27.60;;
16699;SDS011;8466;52.286;21.124;2023-01-13T03:24:27;26.40;;;24.27;;
16699;SDS011;8466;52.286;21.124;2023-01-13T03:27:02;27.73;;;25.53;;
16699;SDS011;8466;52.286;21.124;2023-01-13T03:29:34;25.57;;;23.47;;
16699;SDS011;8466;52.286;21.124;2023-01-13T03:32:09;25.70;;;23.63;;
16699;SDS011;8466;52.286;21.124;2023-01-13T03:34:42;23.27;;;21.37;;
16699;SDS011;8466;52.286;21.124;2023-01-13T03:37:17;24.63;;;22.73;;
16699;SDS011;8466;52.286;21.124;2023-01-13T03:39:51;26.57;;;24.53;;
16699;SDS011;8466;52.286;21.124;2023-01-13T03:42:26;24.43;;;22.53;;
16699;SDS011;8466;52.286;21.124;2023-01-13T03:44:59;26.20;;;24.13;;
16699;SDS011;8466;52.286;21.124;2023-01-13T03:47:32;22.73;;;20.83;;
16699;SDS011;8466;52.286;21.124;2023-01-13T03:50:06;23.50;;;21.50;;
16699;SDS011;8466;52.286;21.124;2023-01-13T03:52:41;21.77;;;19.93;;
16699;SDS011;8466;52.286;21.124;2023-01-13T03:55:20;19.27;;;17.70;;
16699;SDS011;8466;52.286;21.124;2023-01-13T03:57:59;19.63;;;18.03;;
16699;SDS011;8466;52.286;21.124;2023-01-13T04:00:36;25.83;;;23.83;;
16699;SDS011;8466;52.286;21.124;2023-01-13T04:03:12;19.97;;;18.27;;
16699;SDS011;8466;52.286;21.124;2023-01-13T04:05:55;19.90;;;18.27;;
16699;SDS011;8466;52.286;21.124;2023-01-13T04:08:32;21.27;;;19.30;;
16699;SDS011;8466;52.286;21.124;2023-01-13T04:11:04;21.73;;;19.93;;
16699;SDS011;8466;52.286;21.124;2023-01-13T04:13:35;19.13;;;17.43;;
16699;SDS011;8466;52.286;21.124;2023-01-13T04:16:06;21.40;;;19.53;;
16699;SDS011;8466;52.286;21.124;2023-01-13T04:18:37;19.63;;;17.90;;
16699;SDS011;8466;52.286;21.124;2023-01-13T04:21:08;23.63;;;21.93;;
16699;SDS011;8466;52.286;21.124;2023-01-13T04:23:36;21.80;;;20.00;;
16699;SDS011;8466;52.286;21.124;2023-01-13T04:26:05;22.03;;;20.13;;
16699;SDS011;8466;52.286;21.124;2023-01-13T04:28:34;25.40;;;23.50;;
16699;SDS011;8466;52.286;21.124;2023-01-13T04:31:03;28.57;;;26.13;;
16699;SDS011;8466;52.286;21.124;2023-01-13T04:33:34;31.27;;;28.70;;
16699;SDS011;8466;52.286;21.124;2023-01-13T04:36:03;26.83;;;24.77;;
16699;SDS011;8466;52.286;21.124;2023-01-13T04:38:33;23.73;;;21.77;;
16699;SDS011;8466;52.286;21.124;2023-01-13T04:41:02;20.67;;;18.97;;
16699;SDS011;8466;52.286;21.124;2023-01-13T04:43:31;25.60;;;23.53;;
16699;SDS011;8466;52.286;21.124;2023-01-13T04:46:00;24.33;;;22.20;;
16699;SDS011;8466;52.286;21.124;2023-01-13T04:48:28;23.17;;;21.30;;
16699;SDS011;8466;52.286;21.124;2023-01-13T04:51:01;22.90;;;21.07;;
16699;SDS011;8466;52.286;21.124;2023-01-13T04:53:30;25.17;;;23.00;;
16699;SDS011;8466;52.286;21.124;2023-01-13T04:56:00;25.80;;;23.70;;
16699;SDS011;8466;52.286;21.124;2023-01-13T04:58:28;26.93;;;24.77;;
16699;SDS011;8466;52.286;21.124;2023-01-13T05:00:57;28.23;;;26.03;;
16699;SDS011;8466;52.286;21.124;2023-01-13T05:03:26;24.77;;;22.67;;
16699;SDS011;8466;52.286;21.124;2023-01-13T05:05:54;27.10;;;24.77;;
16699;SDS011;8466;52.286;21.124;2023-01-13T05:08:23;24.83;;;22.37;;
16699;SDS011;8466;52.286;21.124;2023-01-13T05:10:53;25.95;;;23.77;;
16699;SDS011;8466;52.286;21.124;2023-01-13T05:13:23;23.30;;;21.57;;
16699;SDS011;8466;52.286;21.124;2023-01-13T05:16:12;26.20;;;24.10;;
16699;SDS011;8466;52.286;21.124;2023-01-13T05:18:58;25.37;;;23.33;;
16699;SDS011;8466;52.286;21.124;2023-01-13T05:21:27;27.77;;;25.77;;
16699;SDS011;8466;52.286;21.124;2023-01-13T05:24:14;27.33;;;25.43;;
16699;SDS011;8466;52.286;21.124;2023-01-13T05:27:00;26.33;;;24.30;;
16699;SDS011;8466;52.286;21.124;2023-01-13T05:29:30;23.33;;;21.53;;
16699;SDS011;8466;52.286;21.124;2023-01-13T05:31:58;12.25;;;10.55;;
16699;SDS011;8466;52.286;21.124;2023-01-13T05:34:36;14.77;;;13.40;;
16699;SDS011;8466;52.286;21.124;2023-01-13T05:37:12;26.27;;;23.93;;
16699;SDS011;8466;52.286;21.124;2023-01-13T05:39:41;24.60;;;22.63;;
16699;SDS011;8466;52.286;21.124;2023-01-13T05:42:28;29.37;;;27.10;;
16699;SDS011;8466;52.286;21.124;2023-01-13T05:45:15;18.50;;;16.77;;
16699;SDS011;8466;52.286;21.124;2023-01-13T05:47:44;20.23;;;18.63;;
16699;SDS011;8466;52.286;21.124;2023-01-13T05:50:13;22.77;;;20.83;;
16699;SDS011;8466;52.286;21.124;2023-01-13T05:52:42;23.80;;;21.93;;
16699;SDS011;8466;52.286;21.124;2023-01-13T05:55:11;27.97;;;26.00;;
16699;SDS011;8466;52.286;21.124;2023-01-13T05:57:42;29.97;;;27.87;;
16699;SDS011;8466;52.286;21.124;2023-01-13T06:00:11;27.43;;;25.47;;
16699;SDS011;8466;52.286;21.124;2023-01-13T06:02:41;26.53;;;24.27;;
16699;SDS011;8466;52.286;21.124;2023-01-13T06:05:10;24.90;;;22.80;;
16699;SDS011;8466;52.286;21.124;2023-01-13T06:07:39;22.53;;;20.63;;
16699;SDS011;8466;52.286;21.124;2023-01-13T06:10:08;22.63;;;20.33;;
16699;SDS011;8466;52.286;21.124;2023-01-13T06:12:37;21.47;;;19.67;;
16699;SDS011;8466;52.286;21.124;2023-01-13T06:15:06;21.67;;;19.87;;
16699;SDS011;8466;52.286;21.124;2023-01-13T06:17:35;17.60;;;16.00;;
16699;SDS011;8466;52.286;21.124;2023-01-13T06:20:06;22.30;;;20.37;;
16699;SDS011;8466;52.286;21.124;2023-01-13T06:22:37;20.40;;;18.60;;
16699;SDS011;8466;52.286;21.124;2023-01-13T06:25:10;22.77;;;21.03;;
16699;SDS011;8466;52.286;21.124;2023-01-13T06:27:43;28.73;;;26.60;;
16699;SDS011;8466;52.286;21.124;2023-01-13T06:30:14;22.63;;;20.70;;
16699;SDS011;8466;52.286;21.124;2023-01-13T06:32:44;36.37;;;33.73;;
16699;SDS011;8466;52.286;21.124;2023-01-13T06:35:17;34.93;;;32.47;;
16699;SDS011;8466;52.286;21.124;2023-01-13T06:37:48;32.37;;;29.87;;
16699;SDS011;8466;52.286;21.124;2023-01-13T06:40:20;30.93;;;28.63;;
16699;SDS011;8466;52.286;21.124;2023-01-13T06:42:49;32.77;;;30.40;;
16699;SDS011;8466;52.286;21.124;2023-01-13T06:45:42;36.43;;;33.77;;
16699;SDS011;8466;52.286;21.124;2023-01-13T06:48:13;36.93;;;34.40;;
16699;SDS011;8466;52.286;21.124;2023-01-13T06:50:44;42.53;;;39.63;;
16699;SDS011;8466;52.286;21.124;2023-01-13T06:53:13;34.90;;;32.40;;
16699;SDS011;8466;52.286;21.124;2023-01-13T06:55:42;41.13;;;38.13;;
16699;SDS011;8466;52.286;21.124;2023-01-13T06:58:11;36.80;;;34.10;;
16699;SDS011;8466;52.286;21.124;2023-01-13T07:00:40;17.42;;;15.93;;
16699;SDS011;8466;52.286;21.124;2023-01-13T07:03:09;18.10;;;16.63;;
16699;SDS011;8466;52.286;21.124;2023-01-13T07:05:40;22.87;;;21.27;;
16699;SDS011;8466;52.286;21.124;2023-01-13T07:08:11;28.63;;;26.57;;
16699;SDS011;8466;52.286;21.124;2023-01-13T07:10:39;34.30;;;31.97;;
16699;SDS011;8466;52.286;21.124;2023-01-13T07:13:08;36.37;;;34.03;;
16699;SDS011;8466;52.286;21.124;2023-01-13T07:15:55;33.43;;;31.13;;
16699;SDS011;8466;52.286;21.124;2023-01-13T07:18:26;35.80;;;33.07;;
16699;SDS011;8466;52.286;21.124;2023-01-13T07:20:57;34.00;;;31.63;;
16699;SDS011;8466;52.286;21.124;2023-01-13T07:23:29;36.63;;;34.10;;
16699;SDS011;8466;52.286;21.124;2023-01-13T07:25:59;34.87;;;32.27;;
16699;SDS011;8466;52.286;21.124;2023-01-13T07:28:29;36.70;;;34.00;;
16699;SDS011;8466;52.286;21.124;2023-01-13T07:30:58;37.87;;;35.17;;
16699;SDS011;8466;52.286;21.124;2023-01-13T07:33:27;28.83;;;26.47;;
16699;SDS011;8466;52.286;21.124;2023-01-13T07:35:59;38.03;;;35.53;;
16699;SDS011;8466;52.286;21.124;2023-01-13T07:38:30;34.97;;;32.57;;
16699;SDS011;8466;52.286;21.124;2023-01-13T07:41:00;31.40;;;29.23;;
16699;SDS011;8466;52.286;21.124;2023-01-13T07:43:50;34.43;;;32.03;;
16699;SDS011;8466;52.286;21.124;2023-01-13T07:46:18;36.03;;;33.53;;
16699;SDS011;8466;52.286;21.124;2023-01-13T07:48:46;24.13;;;22.17;;
16699;SDS011;8466;52.286;21.124;2023-01-13T07:51:15;35.33;;;33.00;;
16699;SDS011;8466;52.286;21.124;2023-01-13T07:53:46;30.93;;;28.60;;
16699;SDS011;8466;52.286;21.124;2023-01-13T07:56:15;33.40;;;31.00;;
16699;SDS011;8466;52.286;21.124;2023-01-13T07:58:44;33.67;;;31.33;;
16699;SDS011;8466;52.286;21.124;2023-01-13T08:01:16;36.33;;;33.83;;
16699;SDS011;8466;52.286;21.124;2023-01-13T08:03:45;33.47;;;31.03;;
16699;SDS011;8466;52.286;21.124;2023-01-13T08:06:14;35.07;;;32.53;;
16699;SDS011;8466;52.286;21.124;2023-01-13T08:08:43;33.13;;;30.73;;
16699;SDS011;8466;52.286;21.124;2023-01-13T08:11:13;27.37;;;25.43;;
16699;SDS011;8466;52.286;21.124;2023-01-13T08:13:42;29.17;;;26.97;;
16699;SDS011;8466;52.286;21.124;2023-01-13T08:16:12;30.23;;;28.00;;
16699;SDS011;8466;52.286;21.124;2023-01-13T08:18:41;23.27;;;21.43;;
16699;SDS011;8466;52.286;21.124;2023-01-13T08:21:11;22.67;;;21.07;;
16699;SDS011;8466;52.286;21.124;2023-01-13T08:23:41;24.40;;;22.40;;
16699;SDS011;8466;52.286;21.124;2023-01-13T08:26:12;26.43;;;24.37;;
16699;SDS011;8466;52.286;21.124;2023-01-13T08:28:44;18.90;;;17.30;;
16699;SDS011;8466;52.286;21.124;2023-01-13T08:31:14;20.20;;;18.63;;
16699;SDS011;8466;52.286;21.124;2023-01-13T08:33:45;19.80;;;18.20;;
16699;SDS011;8466;52.286;21.124;2023-01-13T08:36:14;19.57;;;17.83;;
16699;SDS011;8466;52.286;21.124;2023-01-13T08:38:44;18.53;;;16.93;;
16699;SDS011;8466;52.286;21.124;2023-01-13T08:41:14;19.10;;;17.57;;
16699;SDS011;8466;52.286;21.124;2023-01-13T08:44:04;17.93;;;16.50;;
16699;SDS011;8466;52.286;21.124;2023-01-13T08:46:34;16.17;;;14.50;;
16699;SDS011;8466;52.286;21.124;2023-01-13T08:49:03;14.27;;;13.07;;
16699;SDS011;8466;52.286;21.124;2023-01-13T08:51:41;14.73;;;13.43;;
16699;SDS011;8466;52.286;21.124;2023-01-13T08:54:10;15.27;;;13.70;;
16699;SDS011;8466;52.286;21.124;2023-01-13T08:56:41;14.03;;;12.73;;
16699;SDS011;8466;52.286;21.124;2023-01-13T09:02:25;14.70;;;13.20;;
16699;SDS011;8466;52.286;21.124;2023-01-13T09:04:54;14.47;;;13.00;;
16699;SDS011;8466;52.286;21.124;2023-01-13T09:07:23;12.23;;;11.17;;
16699;SDS011;8466;52.286;21.124;2023-01-13T09:09:52;13.57;;;12.30;;
16699;SDS011;8466;52.286;21.124;2023-01-13T09:12:23;13.23;;;11.90;;
16699;SDS011;8466;52.286;21.124;2023-01-13T09:15:10;14.93;;;12.83;;
16699;SDS011;8466;52.286;21.124;2023-01-13T09:17:39;12.40;;;11.27;;
16699;SDS011;8466;52.286;21.124;2023-01-13T09:20:09;11.77;;;10.70;;
16699;SDS011;8466;52.286;21.124;2023-01-13T09:22:39;11.10;;;10.00;;
16699;SDS011;8466;52.286;21.124;2023-01-13T09:25:08;13.60;;;12.17;;
16699;SDS011;8466;52.286;21.124;2023-01-13T09:27:39;14.70;;;10.63;;
16699;SDS011;8466;52.286;21.124;2023-01-13T09:30:09;11.57;;;10.57;;
16699;SDS011;8466;52.286;21.124;2023-01-13T09:32:38;13.80;;;12.50;;
16699;SDS011;8466;52.286;21.124;2023-01-13T09:35:07;14.60;;;13.40;;
16699;SDS011;8466;52.286;21.124;2023-01-13T09:37:36;17.87;;;16.37;;
16699;SDS011;8466;52.286;21.124;2023-01-13T09:40:06;18.00;;;16.43;;
16699;SDS011;8466;52.286;21.124;2023-01-13T09:42:43;18.03;;;16.53;;
16699;SDS011;8466;52.286;21.124;2023-01-13T09:45:36;17.27;;;15.70;;
16699;SDS011;8466;52.286;21.124;2023-01-13T09:48:10;12.10;;;11.10;;
16699;SDS011;8466;52.286;21.124;2023-01-13T09:50:46;12.63;;;10.87;;
16699;SDS011;8466;52.286;21.124;2023-01-13T09:53:21;20.50;;;18.80;;
16699;SDS011;8466;52.286;21.124;2023-01-13T09:55:54;20.70;;;19.10;;
16699;SDS011;8466;52.286;21.124;2023-01-13T09:58:25;19.03;;;17.60;;
16699;SDS011;8466;52.286;21.124;2023-01-13T10:01:00;20.67;;;19.07;;
16699;SDS011;8466;52.286;21.124;2023-01-13T10:03:36;21.23;;;19.73;;
16699;SDS011;8466;52.286;21.124;2023-01-13T10:06:08;25.70;;;23.90;;
16699;SDS011;8466;52.286;21.124;2023-01-13T10:08:42;22.10;;;20.27;;
16699;SDS011;8466;52.286;21.124;2023-01-13T10:14:23;21.13;;;19.53;;
16699;SDS011;8466;52.286;21.124;2023-01-13T10:16:57;26.17;;;24.30;;
16699;SDS011;8466;52.286;21.124;2023-01-13T10:19:35;26.90;;;24.93;;
16699;SDS011;8466;52.286;21.124;2023-01-13T10:22:11;23.20;;;21.60;;
16699;SDS011;8466;52.286;21.124;2023-01-13T10:24:56;24.13;;;22.30;;
16699;SDS011;8466;52.286;21.124;2023-01-13T10:27:46;26.50;;;24.43;;
16699;SDS011;8466;52.286;21.124;2023-01-13T10:30:22;22.17;;;20.47;;
16699;SDS011;8466;52.286;21.124;2023-01-13T10:32:57;22.23;;;20.53;;
16699;SDS011;8466;52.286;21.124;2023-01-13T10:38:26;19.93;;;18.43;;
16699;SDS011;8466;52.286;21.124;2023-01-13T10:40:57;19.10;;;17.50;;
16699;SDS011;8466;52.286;21.124;2023-01-13T10:43:28;19.60;;;18.03;;
16699;SDS011;8466;52.286;21.124;2023-01-13T10:46:01;18.13;;;16.60;;
16699;SDS011;8466;52.286;21.124;2023-01-13T10:48:32;20.90;;;19.27;;
16699;SDS011;8466;52.286;21.124;2023-01-13T10:51:10;20.80;;;19.17;;
16699;SDS011;8466;52.286;21.124;2023-01-13T10:53:50;18.43;;;17.03;;
16699;SDS011;8466;52.286;21.124;2023-01-13T10:56:22;18.30;;;16.70;;
16699;SDS011;8466;52.286;21.124;2023-01-13T10:58:57;16.10;;;14.80;;
16699;SDS011;8466;52.286;21.124;2023-01-13T11:01:41;18.87;;;17.37;;
16699;SDS011;8466;52.286;21.124;2023-01-13T11:04:24;15.70;;;14.50;;
16699;SDS011;8466;52.286;21.124;2023-01-13T11:06:56;19.07;;;17.80;;
16699;SDS011;8466;52.286;21.124;2023-01-13T11:09:26;21.07;;;19.17;;
16699;SDS011;8466;52.286;21.124;2023-01-13T11:11:56;18.43;;;17.03;;
16699;SDS011;8466;52.286;21.124;2023-01-13T11:14:33;22.13;;;20.43;;
16699;SDS011;8466;52.286;21.124;2023-01-13T11:17:13;24.50;;;22.60;;
16699;SDS011;8466;52.286;21.124;2023-01-13T11:19:53;30.43;;;28.33;;
16699;SDS011;8466;52.286;21.124;2023-01-13T11:22:32;29.50;;;27.33;;
16699;SDS011;8466;52.286;21.124;2023-01-13T11:25:08;31.20;;;28.93;;
16699;SDS011;8466;52.286;21.124;2023-01-13T11:27:44;34.23;;;32.00;;
16699;SDS011;8466;52.286;21.124;2023-01-13T11:30:23;29.93;;;27.73;;
16699;SDS011;8466;52.286;21.124;2023-01-13T11:33:06;26.23;;;24.27;;
16699;SDS011;8466;52.286;21.124;2023-01-13T11:35:50;32.53;;;30.43;;
16699;SDS011;8466;52.286;21.124;2023-01-13T11:38:30;29.90;;;27.90;;
16699;SDS011;8466;52.286;21.124;2023-01-13T11:44:03;38.83;;;36.10;;
16699;SDS011;8466;52.286;21.124;2023-01-13T11:46:40;28.90;;;27.00;;
16699;SDS011;8466;52.286;21.124;2023-01-13T11:49:14;25.23;;;23.53;;
16699;SDS011;8466;52.286;21.124;2023-01-13T11:51:52;24.53;;;22.67;;
16699;SDS011;8466;52.286;21.124;2023-01-13T11:54:31;28.60;;;26.67;;
16699;SDS011;8466;52.286;21.124;2023-01-13T12:00:25;37.50;;;35.20;;
16699;SDS011;8466;52.286;21.124;2023-01-13T12:03:11;37.97;;;35.53;;
16699;SDS011;8466;52.286;21.124;2023-01-13T12:05:57;29.07;;;27.07;;
16699;SDS011;8466;52.286;21.124;2023-01-13T12:08:45;29.77;;;27.83;;
16699;SDS011;8466;52.286;21.124;2023-01-13T12:11:39;31.13;;;29.07;;
16699;SDS011;8466;52.286;21.124;2023-01-13T12:14:32;32.33;;;30.13;;
16699;SDS011;8466;52.286;21.124;2023-01-13T12:17:10;37.57;;;34.67;;
16699;SDS011;8466;52.286;21.124;2023-01-13T12:19:49;30.20;;;28.20;;
16699;SDS011;8466;52.286;21.124;2023-01-13T12:22:22;34.63;;;32.17;;
16699;SDS011;8466;52.286;21.124;2023-01-13T12:24:54;37.27;;;35.00;;
16699;SDS011;8466;52.286;21.124;2023-01-13T12:27:33;32.40;;;30.40;;
16699;SDS011;8466;52.286;21.124;2023-01-13T12:30:15;34.80;;;32.43;;
16699;SDS011;8466;52.286;21.124;2023-01-13T12:32:49;29.77;;;27.70;;
16699;SDS011;8466;52.286;21.124;2023-01-13T12:35:27;34.63;;;32.33;;
16699;SDS011;8466;52.286;21.124;2023-01-13T12:38:07;30.47;;;28.47;;
16699;SDS011;8466;52.286;21.124;2023-01-13T12:40:43;34.53;;;32.33;;
16699;SDS011;8466;52.286;21.124;2023-01-13T12:43:18;33.40;;;31.10;;
16699;SDS011;8466;52.286;21.124;2023-01-13T12:49:17;30.67;;;28.67;;
16699;SDS011;8466;52.286;21.124;2023-01-13T12:55:06;28.93;;;26.87;;
16699;SDS011;8466;52.286;21.124;2023-01-13T13:00:55;27.20;;;25.20;;
16699;SDS011;8466;52.286;21.124;2023-01-13T13:03:27;23.50;;;21.83;;
16699;SDS011;8466;52.286;21.124;2023-01-13T13:06:02;23.30;;;21.67;;
16699;SDS011;8466;52.286;21.124;2023-01-13T13:08:43;32.43;;;30.37;;
16699;SDS011;8466;52.286;21.124;2023-01-13T13:11:35;29.27;;;27.30;;
16699;SDS011;8466;52.286;21.124;2023-01-13T13:26:30;37.80;;;35.37;;
16699;SDS011;8466;52.286;21.124;2023-01-13T13:29:18;36.40;;;34.10;;
16699;SDS011;8466;52.286;21.124;2023-01-13T13:35:08;32.47;;;30.27;;
16699;SDS011;8466;52.286;21.124;2023-01-13T13:37:52;33.37;;;31.00;;
16699;SDS011;8466;52.286;21.124;2023-01-13T13:40:45;34.93;;;32.43;;
16699;SDS011;8466;52.286;21.124;2023-01-13T13:43:36;33.53;;;31.40;;
16699;SDS011;8466;52.286;21.124;2023-01-13T13:46:26;19.90;;;18.50;;
16699;SDS011;8466;52.286;21.124;2023-01-13T13:49:15;34.60;;;32.13;;
16699;SDS011;8466;52.286;21.124;2023-01-13T13:51:47;30.40;;;28.20;;
16699;SDS011;8466;52.286;21.124;2023-01-13T13:54:23;31.03;;;28.77;;
16699;SDS011;8466;52.286;21.124;2023-01-13T13:56:52;29.97;;;28.10;;
16699;SDS011;8466;52.286;21.124;2023-01-13T13:59:23;27.53;;;25.70;;
16699;SDS011;8466;52.286;21.124;2023-01-13T14:01:56;30.33;;;28.40;;
16699;SDS011;8466;52.286;21.124;2023-01-13T14:04:30;28.17;;;26.37;;
16699;SDS011;8466;52.286;21.124;2023-01-13T14:07:01;30.47;;;28.23;;
16699;SDS011;8466;52.286;21.124;2023-01-13T14:09:43;20.90;;;19.33;;
16699;SDS011;8466;52.286;21.124;2023-01-13T14:12:17;25.83;;;23.63;;
16699;SDS011;8466;52.286;21.124;2023-01-13T14:14:57;20.43;;;18.87;;
16699;SDS011;8466;52.286;21.124;2023-01-13T14:17:27;18.93;;;17.50;;
16699;SDS011;8466;52.286;21.124;2023-01-13T14:19:58;33.17;;;29.90;;
16699;SDS011;8466;52.286;21.124;2023-01-13T14:22:30;27.00;;;24.93;;
16699;SDS011;8466;52.286;21.124;2023-01-13T14:25:00;34.80;;;31.57;;
16699;SDS011;8466;52.286;21.124;2023-01-13T14:27:29;22.40;;;20.57;;
16699;SDS011;8466;52.286;21.124;2023-01-13T14:30:01;23.07;;;21.23;;
16699;SDS011;8466;52.286;21.124;2023-01-13T14:32:31;18.97;;;17.37;;
16699;SDS011;8466;52.286;21.124;2023-01-13T14:35:04;19.40;;;17.77;;
16699;SDS011;8466;52.286;21.124;2023-01-13T14:37:35;18.70;;;17.30;;
16699;SDS011;8466;52.286;21.124;2023-01-13T14:43:14;17.97;;;16.43;;
16699;SDS011;8466;52.286;21.124;2023-01-13T14:45:56;21.17;;;19.43;;
16699;SDS011;8466;52.286;21.124;2023-01-13T14:48:27;20.97;;;19.43;;
16699;SDS011;8466;52.286;21.124;2023-01-13T14:51:02;22.30;;;20.53;;
16699;SDS011;8466;52.286;21.124;2023-01-13T14:53:36;22.50;;;20.70;;
16699;SDS011;8466;52.286;21.124;2023-01-13T15:10:50;23.80;;;21.77;;
16699;SDS011;8466;52.286;21.124;2023-01-13T15:13:24;23.57;;;21.50;;
16699;SDS011;8466;52.286;21.124;2023-01-13T15:16:01;19.87;;;18.30;;
16699;SDS011;8466;52.286;21.124;2023-01-13T15:18:34;19.67;;;17.97;;
16699;SDS011;8466;52.286;21.124;2023-01-13T15:21:05;21.90;;;20.03;;
16699;SDS011;8466;52.286;21.124;2023-01-13T15:23:35;23.63;;;21.70;;
16699;SDS011;8466;52.286;21.124;2023-01-13T15:26:12;26.17;;;23.43;;
16699;SDS011;8466;52.286;21.124;2023-01-13T15:28:47;23.70;;;21.90;;
16699;SDS011;8466;52.286;21.124;2023-01-13T15:31:17;29.50;;;27.13;;
16699;SDS011;8466;52.286;21.124;2023-01-13T15:33:48;22.90;;;20.90;;
16699;SDS011;8466;52.286;21.124;2023-01-13T15:36:22;24.53;;;22.63;;
16699;SDS011;8466;52.286;21.124;2023-01-13T15:38:53;22.40;;;20.60;;
16699;SDS011;8466;52.286;21.124;2023-01-13T15:41:23;23.00;;;21.10;;
16699;SDS011;8466;52.286;21.124;2023-01-13T15:44:10;21.23;;;19.43;;
16699;SDS011;8466;52.286;21.124;2023-01-13T15:46:56;26.87;;;24.53;;
16699;SDS011;8466;52.286;21.124;2023-01-13T15:49:31;25.20;;;22.93;;
16699;SDS011;8466;52.286;21.124;2023-01-13T15:52:03;28.77;;;26.57;;
16699;SDS011;8466;52.286;21.124;2023-01-13T15:54:39;27.33;;;24.97;;
16699;SDS011;8466;52.286;21.124;2023-01-13T15:57:07;25.67;;;23.60;;
16699;SDS011;8466;52.286;21.124;2023-01-13T15:59:39;25.33;;;23.07;;
16699;SDS011;8466;52.286;21.124;2023-01-13T16:02:08;25.47;;;23.13;;
16699;SDS011;8466;52.286;21.124;2023-01-13T16:04:43;23.20;;;21.30;;
16699;SDS011;8466;52.286;21.124;2023-01-13T16:07:12;22.70;;;20.80;;